createdAt,value
2018-05-21T00:01:45.716Z,17.80
2018-05-21T00:04:13.238Z,17.80
2018-05-21T00:06:40.701Z,17.70
2018-05-21T00:09:08.152Z,17.70
2018-05-21T00:11:35.653Z,17.60
2018-05-21T00:14:03.103Z,17.60
2018-05-21T00:16:30.557Z,17.60
2018-05-21T00:18:58.042Z,17.50
2018-05-21T00:21:25.493Z,17.50
2018-05-21T00:23:52.951Z,17.40
2018-05-21T00:26:20.411Z,17.40
2018-05-21T00:28:47.992Z,17.30
2018-05-21T00:31:15.457Z,17.30
2018-05-21T00:33:43.684Z,17.20
2018-05-21T00:36:11.180Z,17.20
2018-05-21T00:38:38.737Z,17.10
2018-05-21T00:41:07.007Z,17.00
2018-05-21T00:43:34.568Z,17.00
2018-05-21T00:46:02.016Z,17.00
2018-05-21T00:48:29.495Z,16.90
2018-05-21T00:50:56.972Z,16.90
2018-05-21T00:53:24.439Z,16.90
2018-05-21T00:55:51.920Z,16.80
2018-05-21T00:58:19.380Z,16.70
2018-05-21T01:00:46.876Z,16.70
2018-05-21T01:03:14.337Z,16.60
2018-05-21T01:05:41.796Z,16.60
2018-05-21T01:08:10.052Z,16.50
2018-05-21T01:10:37.537Z,16.50
2018-05-21T01:13:05.767Z,16.40
2018-05-21T01:15:33.255Z,16.40
2018-05-21T01:18:00.709Z,16.40
2018-05-21T01:20:28.188Z,16.40
2018-05-21T01:22:56.412Z,16.30
2018-05-21T01:25:23.923Z,16.30
2018-05-21T01:27:52.154Z,16.30
2018-05-21T01:30:19.648Z,16.30
2018-05-21T01:32:47.105Z,16.30
2018-05-21T01:35:14.569Z,16.20
2018-05-21T01:37:42.043Z,16.20
2018-05-21T01:40:10.383Z,16.20
2018-05-21T01:42:38.553Z,16.20
2018-05-21T01:45:06.009Z,16.10
2018-05-21T01:47:33.488Z,16.10
2018-05-21T01:50:00.935Z,16.10
2018-05-21T01:52:28.418Z,16.10
2018-05-21T01:54:56.653Z,16.10
2018-05-21T01:57:24.150Z,16.00
2018-05-21T01:59:51.884Z,16.10
2018-05-21T02:02:19.380Z,16.00
2018-05-21T02:04:46.831Z,16.00
2018-05-21T02:07:14.287Z,16.00
2018-05-21T02:09:41.761Z,16.00
2018-05-21T02:12:10.009Z,16.00
2018-05-21T02:14:37.473Z,16.00
2018-05-21T02:17:04.969Z,16.00
2018-05-21T02:19:32.427Z,16.00
2018-05-21T02:21:59.932Z,15.90
2018-05-21T02:24:27.421Z,15.90
2018-05-21T02:26:55.638Z,15.90
2018-05-21T02:29:23.125Z,15.90
2018-05-21T02:31:50.686Z,15.90
2018-05-21T02:34:18.175Z,15.80
2018-05-21T02:36:46.407Z,15.80
2018-05-21T02:39:13.912Z,15.80
2018-05-21T02:41:42.151Z,15.70
2018-05-21T02:44:09.610Z,15.70
2018-05-21T02:46:37.868Z,15.70
2018-05-21T02:49:05.352Z,15.70
2018-05-21T02:51:32.808Z,15.70
2018-05-21T02:54:01.068Z,15.60
2018-05-21T02:56:28.795Z,15.60
2018-05-21T02:58:57.017Z,15.60
2018-05-21T03:01:24.504Z,15.50
2018-05-21T03:03:51.976Z,15.50
2018-05-21T03:06:20.191Z,15.50
2018-05-21T03:08:47.728Z,15.40
2018-05-21T03:11:15.205Z,15.40
2018-05-21T03:13:42.677Z,15.40
2018-05-21T03:16:10.147Z,15.40
2018-05-21T03:18:37.604Z,15.40
2018-05-21T03:21:05.070Z,15.40
2018-05-21T03:23:32.552Z,15.30
2018-05-21T03:26:00.808Z,15.30
2018-05-21T03:28:28.263Z,15.30
2018-05-21T03:30:55.745Z,15.30
2018-05-21T03:33:23.989Z,15.20
2018-05-21T03:35:51.443Z,15.20
2018-05-21T03:38:18.927Z,15.20
2018-05-21T03:40:46.567Z,15.20
2018-05-21T03:43:14.056Z,15.20
2018-05-21T03:45:41.548Z,15.20
2018-05-21T03:48:09.004Z,15.20
2018-05-21T03:50:36.456Z,15.20
2018-05-21T03:53:03.951Z,15.20
2018-05-21T03:55:31.423Z,15.10
2018-05-21T03:57:58.903Z,15.10
2018-05-21T04:00:38.020Z,15.10
2018-05-21T04:03:17.312Z,15.10
2018-05-21T04:05:44.750Z,15.10
2018-05-21T04:08:12.216Z,15.20
2018-05-21T04:10:39.704Z,15.20
2018-05-21T04:13:07.192Z,15.20
2018-05-21T04:15:34.675Z,15.20
2018-05-21T04:18:02.904Z,15.30
2018-05-21T04:20:30.415Z,15.30
2018-05-21T04:22:57.869Z,15.30
2018-05-21T04:25:26.108Z,15.40
2018-05-21T04:27:53.564Z,15.30
2018-05-21T04:30:21.075Z,15.40
2018-05-21T04:32:48.536Z,15.40
2018-05-21T04:35:16.030Z,15.50
2018-05-21T04:37:43.485Z,15.50
2018-05-21T04:40:10.941Z,15.50
2018-05-21T04:42:38.423Z,15.50
2018-05-21T04:45:05.872Z,15.60
2018-05-21T04:47:33.328Z,15.60
2018-05-21T04:50:00.904Z,15.60
2018-05-21T04:52:28.356Z,15.70
2018-05-21T04:54:55.813Z,15.70
2018-05-21T04:57:23.292Z,15.80
2018-05-21T04:59:50.749Z,15.80
2018-05-21T05:02:18.229Z,15.80
2018-05-21T05:04:46.485Z,15.90
2018-05-21T05:07:13.960Z,15.90
2018-05-21T05:09:42.192Z,16.00
2018-05-21T05:12:09.676Z,15.90
2018-05-21T05:14:37.135Z,16.00
2018-05-21T05:17:04.593Z,16.00
2018-05-21T05:19:32.090Z,16.10
2018-05-21T05:21:59.555Z,16.20
2018-05-21T05:24:27.036Z,16.20
2018-05-21T05:26:54.503Z,16.30
2018-05-21T05:29:21.985Z,16.30
2018-05-21T05:31:49.445Z,16.30
2018-05-21T05:34:16.911Z,16.40
2018-05-21T05:36:44.356Z,16.40
2018-05-21T05:39:11.832Z,16.40
2018-05-21T05:41:39.434Z,16.40
2018-05-21T05:44:06.992Z,16.50
2018-05-21T05:46:34.637Z,16.50
2018-05-21T05:49:02.179Z,16.60
2018-05-21T05:51:32.072Z,16.70
2018-05-21T05:53:59.539Z,16.70
2018-05-21T05:56:27.800Z,16.80
2018-05-21T05:58:55.254Z,16.80
2018-05-21T06:01:22.728Z,16.90
2018-05-21T06:03:50.193Z,16.90
2018-05-21T06:06:18.442Z,17.00
2018-05-21T06:08:45.956Z,17.00
2018-05-21T06:11:13.421Z,17.10
2018-05-21T06:13:40.870Z,17.20
2018-05-21T06:16:08.349Z,17.20
2018-05-21T06:18:35.825Z,17.30
2018-05-21T06:21:03.291Z,17.40
2018-05-21T06:23:30.744Z,17.50
2018-05-21T06:25:58.243Z,17.60
2018-05-21T06:28:25.707Z,17.80
2018-05-21T06:30:53.193Z,17.90
2018-05-21T06:33:20.657Z,18.00
2018-05-21T06:35:48.152Z,18.20
2018-05-21T06:38:15.687Z,18.20
2018-05-21T06:40:43.099Z,18.30
2018-05-21T06:43:10.746Z,18.40
2018-05-21T06:45:39.091Z,18.40
2018-05-21T06:48:06.988Z,18.40
2018-05-21T06:50:34.513Z,18.50
2018-05-21T06:53:02.731Z,18.60
2018-05-21T06:55:30.988Z,18.70
2018-05-21T06:57:58.448Z,18.70
2018-05-21T07:00:25.944Z,18.80
2018-05-21T07:02:53.471Z,18.90
2018-05-21T07:05:20.951Z,19.00
2018-05-21T07:07:49.176Z,19.20
2018-05-21T07:10:16.743Z,19.20
2018-05-21T07:12:44.215Z,19.20
2018-05-21T07:15:11.669Z,19.30
2018-05-21T07:17:39.145Z,19.40
2018-05-21T07:20:06.606Z,19.50
2018-05-21T07:22:34.120Z,19.50
2018-05-21T07:25:01.573Z,19.60
2018-05-21T07:27:29.052Z,19.70
2018-05-21T07:29:56.521Z,19.80
2018-05-21T07:32:24.012Z,19.80
2018-05-21T07:34:51.465Z,19.90
2018-05-21T07:37:19.719Z,20.10
2018-05-21T07:39:47.179Z,20.10
2018-05-21T07:42:14.660Z,20.20
2018-05-21T07:44:42.128Z,20.30
2018-05-21T07:47:09.584Z,20.30
2018-05-21T07:49:37.056Z,20.40
2018-05-21T07:52:04.571Z,20.50
2018-05-21T07:54:32.028Z,20.60
2018-05-21T07:56:59.497Z,20.70
2018-05-21T07:59:26.972Z,20.80
2018-05-21T08:01:55.212Z,20.90
2018-05-21T08:04:22.716Z,20.90
2018-05-21T08:06:50.172Z,21.00
2018-05-21T08:09:17.651Z,21.10
2018-05-21T08:11:45.128Z,21.20
2018-05-21T08:14:12.598Z,21.20
2018-05-21T08:16:40.055Z,21.30
2018-05-21T08:19:07.553Z,21.40
2018-05-21T08:21:35.012Z,21.40
2018-05-21T08:24:02.504Z,21.40
2018-05-21T08:26:30.010Z,21.50
2018-05-21T08:28:57.462Z,21.60
2018-05-21T08:31:24.932Z,21.60
2018-05-21T08:33:52.384Z,21.70
2018-05-21T08:36:19.872Z,21.80
2018-05-21T08:38:48.144Z,21.90
2018-05-21T08:41:16.388Z,22.00
2018-05-21T08:43:43.845Z,21.90
2018-05-21T08:46:11.320Z,22.10
2018-05-21T08:48:38.863Z,22.10
2018-05-21T08:51:07.031Z,22.30
2018-05-21T08:53:34.497Z,22.30
2018-05-21T08:56:01.979Z,22.40
2018-05-21T08:58:29.437Z,22.40
2018-05-21T09:00:56.913Z,22.50
2018-05-21T09:03:24.384Z,22.60
2018-05-21T09:05:51.877Z,22.70
2018-05-21T09:08:19.379Z,22.80
2018-05-21T09:10:46.860Z,22.80
2018-05-21T09:13:14.362Z,22.90
2018-05-21T09:15:41.811Z,23.00
2018-05-21T09:18:09.264Z,23.00
2018-05-21T09:20:36.761Z,23.10
2018-05-21T09:23:04.261Z,23.10
2018-05-21T09:25:31.740Z,23.20
2018-05-21T09:27:59.210Z,23.30
2018-05-21T09:30:26.687Z,23.30
2018-05-21T09:32:54.169Z,23.40
2018-05-21T09:35:21.624Z,23.40
2018-05-21T09:37:49.888Z,23.60
2018-05-21T09:40:17.344Z,23.60
2018-05-21T09:42:44.803Z,23.70
2018-05-21T09:45:12.287Z,23.80
2018-05-21T09:47:39.763Z,23.90
2018-05-21T09:50:07.208Z,23.90
2018-05-21T09:52:34.695Z,23.90
2018-05-21T09:55:02.199Z,24.00
2018-05-21T09:57:29.664Z,24.10
2018-05-21T09:59:57.273Z,24.20
2018-05-21T10:02:24.728Z,24.30
2018-05-21T10:04:52.370Z,24.40
2018-05-21T10:07:19.839Z,24.40
2018-05-21T10:09:47.320Z,24.50
2018-05-21T10:12:14.895Z,24.60
2018-05-21T10:14:42.274Z,24.70
2018-05-21T10:17:09.756Z,24.80
2018-05-21T10:19:37.236Z,24.80
2018-05-21T10:22:04.692Z,24.90
2018-05-21T10:24:32.192Z,24.90
2018-05-21T10:26:59.656Z,25.00
2018-05-21T10:29:27.141Z,25.10
2018-05-21T10:31:54.592Z,25.20
2018-05-21T10:34:22.837Z,25.30
2018-05-21T10:36:50.296Z,25.30
2018-05-21T10:39:17.767Z,25.40
2018-05-21T10:41:45.262Z,25.50
2018-05-21T10:44:12.772Z,25.50
2018-05-21T10:46:40.264Z,25.50
2018-05-21T10:49:07.728Z,25.60
2018-05-21T10:51:35.237Z,25.60
2018-05-21T10:54:02.708Z,25.70
2018-05-21T10:56:30.161Z,25.80
2018-05-21T10:58:57.660Z,25.80
2018-05-21T11:01:25.151Z,25.80
2018-05-21T11:03:52.623Z,25.90
2018-05-21T11:06:20.097Z,26.00
2018-05-21T11:08:47.581Z,26.00
2018-05-21T11:11:15.816Z,26.30
2018-05-21T11:13:43.295Z,26.30
2018-05-21T11:16:10.745Z,26.30
2018-05-21T11:18:38.236Z,26.40
2018-05-21T11:21:06.500Z,26.60
2018-05-21T11:23:33.955Z,26.50
2018-05-21T11:26:01.444Z,26.70
2018-05-21T11:28:29.152Z,26.70
2018-05-21T11:30:56.644Z,26.70
2018-05-21T11:33:24.129Z,26.70
2018-05-21T11:35:51.600Z,26.70
2018-05-21T11:38:19.072Z,26.80
2018-05-21T11:40:46.560Z,26.90
2018-05-21T11:43:14.036Z,27.00
2018-05-21T11:45:42.275Z,27.20
2018-05-21T11:48:09.740Z,27.20
2018-05-21T11:50:37.270Z,27.30
2018-05-21T11:53:04.718Z,27.40
2018-05-21T11:55:32.192Z,27.40
2018-05-21T11:57:59.783Z,27.50
2018-05-21T12:00:28.067Z,27.70
2018-05-21T12:02:55.517Z,27.70
2018-05-21T12:05:22.997Z,27.80
2018-05-21T12:07:50.480Z,27.80
2018-05-21T12:10:17.972Z,27.80
2018-05-21T12:12:45.452Z,27.90
2018-05-21T12:15:12.945Z,28.00
2018-05-21T12:17:41.176Z,28.10
2018-05-21T12:20:08.652Z,28.10
2018-05-21T12:22:36.108Z,28.10
2018-05-21T12:25:03.588Z,28.10
2018-05-21T12:27:31.829Z,28.20
2018-05-21T12:29:59.309Z,28.20
2018-05-21T12:32:26.764Z,28.30
2018-05-21T12:34:54.262Z,28.50
2018-05-21T12:37:21.725Z,28.70
2018-05-21T12:39:49.200Z,28.90
2018-05-21T12:42:16.663Z,29.00
2018-05-21T12:44:44.141Z,29.20
2018-05-21T12:47:11.628Z,29.10
2018-05-21T12:49:39.097Z,29.00
2018-05-21T12:52:07.343Z,28.90
2018-05-21T12:54:34.867Z,28.90
2018-05-21T12:57:02.638Z,29.00
2018-05-21T12:59:30.121Z,29.00
2018-05-21T13:01:57.593Z,29.10
2018-05-21T13:04:25.073Z,29.10
2018-05-21T13:06:53.312Z,28.90
2018-05-21T13:09:20.792Z,28.90
2018-05-21T13:11:48.246Z,28.90
2018-05-21T13:14:15.735Z,28.90
2018-05-21T13:16:43.235Z,28.80
2018-05-21T13:19:10.735Z,28.90
2018-05-21T13:21:38.974Z,29.30
2018-05-21T13:24:06.522Z,29.30
2018-05-21T13:26:34.842Z,29.60
2018-05-21T13:29:02.308Z,29.60
2018-05-21T13:31:29.816Z,29.80
2018-05-21T13:33:57.272Z,30.00
2018-05-21T13:36:24.742Z,30.20
2018-05-21T13:38:52.291Z,30.20
2018-05-21T13:41:19.711Z,30.40
2018-05-21T13:43:47.939Z,31.40
2018-05-21T13:46:16.176Z,32.50
2018-05-21T13:48:43.654Z,32.40
2018-05-21T13:51:11.107Z,33.30
2018-05-21T13:53:38.585Z,33.30
2018-05-21T13:56:06.040Z,33.50
2018-05-21T13:58:33.552Z,34.60
2018-05-21T14:01:01.833Z,36.50
2018-05-21T14:03:30.072Z,37.40
2018-05-21T14:05:57.533Z,37.30
2018-05-21T14:08:25.018Z,39.40
2018-05-21T14:10:53.327Z,43.10
2018-05-21T14:13:20.794Z,42.90
2018-05-21T14:15:48.277Z,43.90
2018-05-21T14:18:15.761Z,44.80
2018-05-21T14:20:43.240Z,45.20
2018-05-21T14:23:10.704Z,44.00
2018-05-21T14:25:38.193Z,42.10
2018-05-21T14:28:05.652Z,42.00
2018-05-21T14:30:33.123Z,43.30
2018-05-21T14:33:00.589Z,44.80
2018-05-21T14:35:28.074Z,46.50
2018-05-21T14:37:55.528Z,47.60
2018-05-21T14:40:22.997Z,45.80
2018-05-21T14:42:51.249Z,45.70
2018-05-21T14:45:18.744Z,45.70
2018-05-21T14:47:46.989Z,48.80
2018-05-21T14:50:14.501Z,48.80
2018-05-21T14:52:41.987Z,50.20
2018-05-21T14:55:09.449Z,51.20
2018-05-21T14:57:36.903Z,51.50
2018-05-21T15:00:05.164Z,52.00
2018-05-21T15:02:32.628Z,52.00
2018-05-21T15:05:00.104Z,52.20
2018-05-21T15:07:27.588Z,52.60
2018-05-21T15:09:55.073Z,52.90
2018-05-21T15:12:22.564Z,52.60
2018-05-21T15:14:50.033Z,52.50
2018-05-21T15:17:17.534Z,52.30
2018-05-21T15:19:45.047Z,52.40
2018-05-21T15:22:12.524Z,52.50
2018-05-21T15:24:40.012Z,52.50
2018-05-21T15:27:08.232Z,52.60
2018-05-21T15:29:35.713Z,52.60
2018-05-21T15:32:03.172Z,52.50
2018-05-21T15:34:30.673Z,51.10
2018-05-21T15:36:58.890Z,46.40
2018-05-21T15:39:26.412Z,46.40
2018-05-21T15:41:53.907Z,44.60
2018-05-21T15:44:21.352Z,43.00
2018-05-21T15:46:48.861Z,41.50
2018-05-21T15:49:16.309Z,40.30
2018-05-21T15:51:43.794Z,39.20
2018-05-21T15:54:11.303Z,38.30
2018-05-21T15:56:38.791Z,37.50
2018-05-21T15:59:06.284Z,36.80
2018-05-21T16:01:33.741Z,36.30
2018-05-21T16:04:01.223Z,35.70
2018-05-21T16:06:28.884Z,35.40
2018-05-21T16:08:56.428Z,35.00
2018-05-21T16:11:23.992Z,34.70
2018-05-21T16:13:51.739Z,34.50
2018-05-21T16:16:19.387Z,33.90
2018-05-21T16:18:46.905Z,33.40
2018-05-21T16:21:15.469Z,32.80
2018-05-21T16:23:43.229Z,32.70
2018-05-21T16:26:10.967Z,32.60
2018-05-21T16:28:38.571Z,32.40
2018-05-21T16:31:06.263Z,32.30
2018-05-21T16:33:33.839Z,32.10
2018-05-21T16:36:02.151Z,32.10
2018-05-21T16:38:29.608Z,32.00
2018-05-21T16:40:57.089Z,32.00
2018-05-21T16:43:24.550Z,32.00
2018-05-21T16:45:52.028Z,31.90
2018-05-21T16:48:19.488Z,31.90
2018-05-21T16:50:47.005Z,31.70
2018-05-21T16:53:14.480Z,31.60
2018-05-21T16:55:41.951Z,31.50
2018-05-21T16:58:09.539Z,31.30
2018-05-21T17:00:36.992Z,31.20
2018-05-21T17:03:04.456Z,31.10
2018-05-21T17:05:31.928Z,31.00
2018-05-21T17:08:00.147Z,30.70
2018-05-21T17:10:27.629Z,30.70
2018-05-21T17:12:55.089Z,30.60
2018-05-21T17:15:22.563Z,30.60
2018-05-21T17:17:50.034Z,30.60
2018-05-21T17:20:17.602Z,30.50
2018-05-21T17:22:44.999Z,30.70
2018-05-21T17:25:12.469Z,30.80
2018-05-21T17:27:40.002Z,30.90
2018-05-21T17:30:07.469Z,30.90
2018-05-21T17:32:34.932Z,30.80
2018-05-21T17:35:02.433Z,30.80
2018-05-21T17:37:29.888Z,30.80
2018-05-21T17:39:57.377Z,30.70
2018-05-21T17:42:25.680Z,30.50
2018-05-21T17:44:53.096Z,30.50
2018-05-21T17:47:20.556Z,30.50
2018-05-21T17:49:48.083Z,30.50
2018-05-21T17:52:15.535Z,30.80
2018-05-21T17:54:43.020Z,31.90
2018-05-21T17:57:10.503Z,32.70
2018-05-21T17:59:38.043Z,33.10
2018-05-21T18:02:05.541Z,32.60
2018-05-21T18:04:33.010Z,31.60
2018-05-21T18:07:00.487Z,31.00
2018-05-21T18:09:27.973Z,30.50
2018-05-21T18:11:55.451Z,30.10
2018-05-21T18:14:22.904Z,29.80
2018-05-21T18:19:24.364Z,29.20
2018-05-21T18:21:51.826Z,28.90
2018-05-21T18:24:20.160Z,28.70
2018-05-21T18:26:47.671Z,28.50
2018-05-21T18:29:15.243Z,28.20
2018-05-21T18:31:43.510Z,28.00
2018-05-21T18:34:11.740Z,27.90
2018-05-21T18:36:39.277Z,27.90
2018-05-21T18:39:06.788Z,27.80
2018-05-21T18:41:34.280Z,27.70
2018-05-21T18:44:01.893Z,27.60
2018-05-21T18:46:29.543Z,27.50
2018-05-21T18:48:57.053Z,27.40
2018-05-21T18:51:24.520Z,27.30
2018-05-21T18:53:52.074Z,27.20
2018-05-21T18:56:19.684Z,27.10
2018-05-21T18:58:47.501Z,27.00
2018-05-21T19:01:15.007Z,26.90
2018-05-21T19:03:42.653Z,26.80
2018-05-21T19:06:10.984Z,26.50
2018-05-21T19:08:38.752Z,26.50
2018-05-21T19:11:06.283Z,26.40
2018-05-21T19:13:33.748Z,26.30
2018-05-21T19:16:01.345Z,26.20
2018-05-21T19:18:29.082Z,26.10
2018-05-21T19:20:56.696Z,26.00
2018-05-21T19:23:24.260Z,25.90
2018-05-21T19:25:51.828Z,25.90
2018-05-21T19:28:19.378Z,25.70
2018-05-21T19:30:47.014Z,25.60
2018-05-21T19:33:14.583Z,25.50
2018-05-21T19:35:42.232Z,25.40
2018-05-21T19:38:10.232Z,25.30
2018-05-21T19:40:37.809Z,25.20
2018-05-21T19:43:05.280Z,25.20
2018-05-21T19:45:32.912Z,25.10
2018-05-21T19:48:00.360Z,25.00
2018-05-21T19:50:28.067Z,24.90
2018-05-21T19:52:56.343Z,24.60
2018-05-21T19:55:23.827Z,24.60
2018-05-21T19:57:51.559Z,24.50
2018-05-21T20:00:19.245Z,24.50
2018-05-21T20:02:46.768Z,24.40
2018-05-21T20:05:14.399Z,24.30
2018-05-21T20:07:41.965Z,24.30
2018-05-21T20:10:10.268Z,24.20
2018-05-21T20:12:37.982Z,24.20
2018-05-21T20:15:05.547Z,24.20
2018-05-21T20:17:33.161Z,24.30
2018-05-21T20:20:00.839Z,24.30
2018-05-21T20:22:28.321Z,24.30
2018-05-21T20:24:55.816Z,24.30
2018-05-21T20:27:23.302Z,24.20
2018-05-21T20:29:50.761Z,24.10
2018-05-21T20:32:18.246Z,24.10
2018-05-21T20:34:45.721Z,24.10
2018-05-21T20:37:13.295Z,24.00
2018-05-21T20:39:40.863Z,23.90
2018-05-21T20:42:09.076Z,23.80
2018-05-21T20:44:36.551Z,23.80
2018-05-21T20:47:04.033Z,23.80
2018-05-21T20:49:31.516Z,23.70
2018-05-21T20:51:58.989Z,23.60
2018-05-21T20:54:26.468Z,23.60
2018-05-21T20:56:53.953Z,23.60
2018-05-21T20:59:21.441Z,23.60
2018-05-21T21:01:49.687Z,23.50
2018-05-21T21:04:17.145Z,23.40
2018-05-21T21:06:44.767Z,23.40
2018-05-21T21:09:12.240Z,23.40
2018-05-21T21:11:39.728Z,23.40
2018-05-21T21:14:07.196Z,23.30
2018-05-21T21:16:34.672Z,23.30
2018-05-21T21:19:02.954Z,23.30
2018-05-21T21:21:31.216Z,23.30
2018-05-21T21:23:59.439Z,23.30
2018-05-21T21:26:26.915Z,23.20
2018-05-21T21:28:54.434Z,23.20
2018-05-21T21:31:21.886Z,23.20
2018-05-21T21:33:50.112Z,23.20
2018-05-21T21:36:17.612Z,23.20
2018-05-21T21:38:45.836Z,23.20
2018-05-21T21:41:14.050Z,23.20
2018-05-21T21:43:41.559Z,23.10
2018-05-21T21:46:09.030Z,23.10
2018-05-21T21:48:36.513Z,23.20
2018-05-21T21:51:03.997Z,23.20
2018-05-21T21:53:32.241Z,23.20
2018-05-21T21:55:59.714Z,23.10
2018-05-21T21:58:27.225Z,23.20
2018-05-21T22:00:54.696Z,23.20
2018-05-21T22:03:22.180Z,23.20
2018-05-21T22:05:49.663Z,23.20
2018-05-21T22:08:17.153Z,23.10
2018-05-21T22:10:44.705Z,23.00
2018-05-21T22:13:12.187Z,23.00
2018-05-21T22:15:39.664Z,23.00
2018-05-21T22:18:07.124Z,23.10
2018-05-21T22:20:34.626Z,23.00
2018-05-21T22:23:02.088Z,23.00
2018-05-21T22:25:29.550Z,23.00
2018-05-21T22:27:57.030Z,23.10
2018-05-21T22:30:24.520Z,23.10
2018-05-21T22:32:52.000Z,23.00
2018-05-21T22:35:20.241Z,23.00
2018-05-21T22:37:47.777Z,23.00
2018-05-21T22:40:15.242Z,22.90
2018-05-21T22:42:42.722Z,22.90
2018-05-21T22:45:10.227Z,22.90
2018-05-21T22:47:37.704Z,22.90
2018-05-21T22:50:05.179Z,22.90
2018-05-21T22:52:32.680Z,22.90
2018-05-21T22:55:00.131Z,22.80
2018-05-21T22:57:27.624Z,22.80
2018-05-21T22:59:55.870Z,22.70
2018-05-21T23:02:23.328Z,22.70
2018-05-21T23:04:50.800Z,22.70
2018-05-21T23:07:18.293Z,22.70
2018-05-21T23:09:45.840Z,22.70
2018-05-21T23:12:14.136Z,22.60
2018-05-21T23:14:41.591Z,22.50
2018-05-21T23:17:09.043Z,22.50
2018-05-21T23:19:36.519Z,22.50
2018-05-21T23:22:04.015Z,22.40
2018-05-21T23:24:31.481Z,22.40
2018-05-21T23:26:58.965Z,22.30
2018-05-21T23:29:26.506Z,22.30
2018-05-21T23:31:54.751Z,22.30
2018-05-21T23:34:22.222Z,22.20
2018-05-21T23:36:49.704Z,22.30
2018-05-21T23:39:18.085Z,22.10
2018-05-21T23:41:46.320Z,22.00
2018-05-21T23:44:13.799Z,22.00
2018-05-21T23:46:41.280Z,21.90
2018-05-21T23:49:09.524Z,21.70
2018-05-21T23:51:36.989Z,21.60
2018-05-21T23:54:04.484Z,21.50
2018-05-21T23:56:32.704Z,21.20
2018-05-21T23:59:00.189Z,21.10
